DLH12E EDDN-EDDC
Flight info
| Callsign | DLH12E |
|---|---|
| Flight time | N/A |
| Altitude | 21000 |
| Route | ERETO1G/28 ERETO Z715 ABKIS Q240 DRN |
| Aircraft | A320/M-SDE3FGHIRWY/LB1 |
Departure
| Time | 2026-04-27 16:38 |
|---|---|
| Airport | Nuremberg Airport (EDDN) |
Arrival
| Time | N/A |
|---|---|
| Airport | Dresden Airport (EDDC) |
| Time | Latitude | Longitude | Altitude | Speed | Heading |
|---|---|---|---|---|---|
| 2026-04-27 16:20 | 49.49513 | 11.07790 | 1026 ft | 0 kts | 188° |
| 2026-04-27 16:29 | 49.49532 | 11.07794 | 1028 ft | 2 kts | 188° |
| 2026-04-27 16:30 | 49.49564 | 11.07801 | 1029 ft | 2 kts | 153° |
| 2026-04-27 16:30 | 49.49574 | 11.07787 | 1028 ft | 0 kts | 97° |
| 2026-04-27 16:32 | 49.49573 | 11.07798 | 1027 ft | 5 kts | 96° |
| 2026-04-27 16:32 | 49.49567 | 11.07896 | 1030 ft | 14 kts | 99° |
| 2026-04-27 16:33 | 49.49534 | 11.08320 | 1032 ft | 16 kts | 124° |
| 2026-04-27 16:33 | 49.49504 | 11.08520 | 1034 ft | 23 kts | 80° |
| 2026-04-27 16:33 | 49.49520 | 11.08564 | 1034 ft | 0 kts | 49° |
| 2026-04-27 16:34 | 49.49530 | 11.08570 | 1033 ft | 5 kts | 16° |
| 2026-04-27 16:34 | 49.49588 | 11.08624 | 1034 ft | 13 kts | 72° |
| 2026-04-27 16:34 | 49.49584 | 11.08762 | 1035 ft | 12 kts | 95° |
| 2026-04-27 16:35 | 49.49578 | 11.08872 | 1036 ft | 9 kts | 97° |
| 2026-04-27 16:35 | 49.49571 | 11.08955 | 1037 ft | 7 kts | 99° |
| 2026-04-27 16:35 | 49.49540 | 11.09202 | 1039 ft | 21 kts | 99° |
| 2026-04-27 16:36 | 49.49566 | 11.09433 | 1042 ft | 24 kts | 57° |
| 2026-04-27 16:36 | 49.49661 | 11.09565 | 1045 ft | 13 kts | 2° |
| 2026-04-27 16:36 | 49.49705 | 11.09463 | 1043 ft | 0 kts | 280° |
| 2026-04-27 16:37 | 49.49725 | 11.09249 | 1042 ft | 58 kts | 279° |
| 2026-04-27 16:37 | 49.49830 | 11.08245 | 1029 ft | 128 kts | 278° |
| 2026-04-27 16:37 | 49.50010 | 11.06641 | 1193 ft | 168 kts | 279° |
| 2026-04-27 16:38 | 49.50150 | 11.04788 | 1775 ft | 175 kts | 280° |
| 2026-04-27 16:38 | 49.50323 | 11.02944 | 2454 ft | 177 kts | 280° |
| 2026-04-27 16:38 | 49.50522 | 11.00957 | 2819 ft | 199 kts | 281° |
| 2026-04-27 16:38 | 49.50743 | 10.98746 | 3081 ft | 219 kts | 280° |
| 2026-04-27 16:39 | 49.50985 | 10.96319 | 3429 ft | 242 kts | 280° |
| 2026-04-27 16:39 | 49.51535 | 10.93786 | 4077 ft | 260 kts | 307° |
| 2026-04-27 16:39 | 49.52973 | 10.92118 | 5018 ft | 265 kts | 342° |
| 2026-04-27 16:39 | 49.54795 | 10.91672 | 6073 ft | 268 kts | 359° |
| 2026-04-27 16:40 | 49.56693 | 10.91774 | 6712 ft | 276 kts | 5° |
| 2026-04-27 16:40 | 49.58603 | 10.92054 | 6932 ft | 276 kts | 6° |
| 2026-04-27 16:40 | 49.60511 | 10.92338 | 7101 ft | 276 kts | 5° |
| 2026-04-27 16:40 | 49.62414 | 10.92553 | 7607 ft | 275 kts | 3° |
| 2026-04-27 16:41 | 49.64337 | 10.92702 | 8239 ft | 278 kts | 1° |
| 2026-04-27 16:41 | 49.66280 | 10.92803 | 8885 ft | 280 kts | 0° |
| 2026-04-27 16:41 | 49.68210 | 10.93006 | 9536 ft | 284 kts | 8° |
| 2026-04-27 16:41 | 49.70124 | 10.93821 | 10201 ft | 290 kts | 20° |
| 2026-04-27 16:42 | 49.71957 | 10.95341 | 10807 ft | 309 kts | 33° |
| 2026-04-27 16:42 | 49.73663 | 10.97498 | 11436 ft | 325 kts | 39° |
| 2026-04-27 16:42 | 49.75402 | 10.99808 | 12072 ft | 333 kts | 39° |
| 2026-04-27 16:42 | 49.77173 | 11.02165 | 12719 ft | 338 kts | 38° |
| 2026-04-27 16:43 | 49.78974 | 11.04555 | 13389 ft | 343 kts | 38° |
| 2026-04-27 16:43 | 49.80798 | 11.06973 | 14042 ft | 347 kts | 38° |
| 2026-04-27 16:43 | 49.82619 | 11.09456 | 14643 ft | 352 kts | 42° |
| 2026-04-27 16:43 | 49.84193 | 11.12399 | 15254 ft | 359 kts | 54° |
| 2026-04-27 16:44 | 49.85397 | 11.15822 | 15884 ft | 365 kts | 62° |
| 2026-04-27 16:44 | 49.86499 | 11.19413 | 16221 ft | 370 kts | 62° |
| 2026-04-27 16:44 | 49.87608 | 11.23007 | 16315 ft | 370 kts | 62° |
| 2026-04-27 16:44 | 49.88722 | 11.26609 | 16318 ft | 370 kts | 62° |
| 2026-04-27 16:45 | 49.89835 | 11.30218 | 16318 ft | 370 kts | 62° |
| 2026-04-27 16:45 | 49.90945 | 11.33822 | 16319 ft | 370 kts | 62° |
| 2026-04-27 16:45 | 49.92057 | 11.37431 | 16318 ft | 370 kts | 61° |
| 2026-04-27 16:45 | 49.93358 | 11.40846 | 16317 ft | 366 kts | 51° |
| 2026-04-27 16:46 | 49.95015 | 11.43819 | 16323 ft | 363 kts | 41° |
| 2026-04-27 16:46 | 49.96806 | 11.46597 | 16322 ft | 364 kts | 41° |
| 2026-04-27 16:46 | 49.98594 | 11.49385 | 16322 ft | 364 kts | 41° |
| 2026-04-27 16:46 | 50.00376 | 11.52172 | 16322 ft | 364 kts | 41° |
| 2026-04-27 16:47 | 50.02158 | 11.54970 | 16323 ft | 364 kts | 42° |
| 2026-04-27 16:47 | 50.03938 | 11.57772 | 16328 ft | 364 kts | 42° |
| 2026-04-27 16:47 | 50.05721 | 11.60586 | 16331 ft | 364 kts | 42° |
| 2026-04-27 16:47 | 50.07500 | 11.63394 | 16339 ft | 364 kts | 42° |
| 2026-04-27 16:48 | 50.09260 | 11.66236 | 16333 ft | 365 kts | 43° |
| 2026-04-27 16:48 | 50.10977 | 11.69075 | 16335 ft | 365 kts | 43° |
| 2026-04-27 16:48 | 50.12707 | 11.71970 | 16336 ft | 365 kts | 44° |
| 2026-04-27 16:49 | 50.16155 | 11.77772 | 16337 ft | 365 kts | 44° |
| 2026-04-27 16:49 | 50.17907 | 11.80712 | 16337 ft | 365 kts | 44° |
| 2026-04-27 16:49 | 50.19461 | 11.83858 | 16337 ft | 368 kts | 54° |
| 2026-04-27 16:49 | 50.20787 | 11.87233 | 16337 ft | 369 kts | 55° |
| 2026-04-27 16:50 | 50.22127 | 11.90648 | 16336 ft | 369 kts | 55° |
| 2026-04-27 16:50 | 50.23466 | 11.94060 | 16338 ft | 369 kts | 55° |
| 2026-04-27 16:50 | 50.24806 | 11.97469 | 16337 ft | 369 kts | 55° |
| 2026-04-27 16:50 | 50.26150 | 12.00885 | 16348 ft | 369 kts | 55° |
| 2026-04-27 16:51 | 50.27526 | 12.04268 | 16342 ft | 368 kts | 54° |
| 2026-04-27 16:51 | 50.28957 | 12.07579 | 16338 ft | 367 kts | 52° |
| 2026-04-27 16:51 | 50.30418 | 12.10861 | 16342 ft | 367 kts | 52° |
| 2026-04-27 16:51 | 50.31885 | 12.14130 | 16340 ft | 367 kts | 52° |
| 2026-04-27 16:52 | 50.33349 | 12.17402 | 16344 ft | 367 kts | 52° |
| 2026-04-27 16:52 | 50.34755 | 12.20744 | 16348 ft | 369 kts | 58° |
| 2026-04-27 16:52 | 50.35962 | 12.24288 | 16352 ft | 369 kts | 59° |
| 2026-04-27 16:52 | 50.37159 | 12.27845 | 16347 ft | 369 kts | 60° |
| 2026-04-27 16:53 | 50.38352 | 12.31405 | 16348 ft | 369 kts | 60° |
| 2026-04-27 16:53 | 50.39546 | 12.34970 | 16344 ft | 369 kts | 60° |
| 2026-04-27 16:53 | 50.40740 | 12.38531 | 16354 ft | 369 kts | 60° |
| 2026-04-27 16:53 | 50.41936 | 12.42093 | 16354 ft | 369 kts | 59° |
| 2026-04-27 16:54 | 50.43128 | 12.45657 | 16345 ft | 369 kts | 60° |
| 2026-04-27 16:54 | 50.44317 | 12.49219 | 15950 ft | 368 kts | 60° |
| 2026-04-27 16:54 | 50.45497 | 12.52761 | 15474 ft | 366 kts | 59° |
| 2026-04-27 16:54 | 50.46677 | 12.56302 | 14997 ft | 364 kts | 59° |
| 2026-04-27 16:55 | 50.47847 | 12.59814 | 14549 ft | 362 kts | 59° |
| 2026-04-27 16:55 | 50.49007 | 12.63304 | 14086 ft | 360 kts | 59° |
| 2026-04-27 16:55 | 50.50161 | 12.66784 | 13498 ft | 357 kts | 59° |
| 2026-04-27 16:55 | 50.51286 | 12.70190 | 12785 ft | 347 kts | 60° |
| 2026-04-27 16:56 | 50.52381 | 12.73509 | 12087 ft | 337 kts | 60° |
| 2026-04-27 16:56 | 50.53433 | 12.76690 | 11411 ft | 328 kts | 60° |
| 2026-04-27 16:56 | 50.54474 | 12.79834 | 10730 ft | 320 kts | 60° |
| 2026-04-27 16:56 | 50.55500 | 12.82935 | 9968 ft | 315 kts | 60° |
| 2026-04-27 16:57 | 50.56507 | 12.85989 | 9026 ft | 314 kts | 61° |
| 2026-04-27 16:57 | 50.57479 | 12.88955 | 8317 ft | 306 kts | 61° |
| 2026-04-27 16:57 | 50.58456 | 12.91944 | 7624 ft | 298 kts | 62° |
| 2026-04-27 16:57 | 50.59395 | 12.94811 | 6954 ft | 291 kts | 62° |
| 2026-04-27 16:58 | 50.60314 | 12.97613 | 6274 ft | 285 kts | 63° |
| 2026-04-27 16:58 | 50.61212 | 13.00356 | 5655 ft | 277 kts | 63° |
| 2026-04-27 16:58 | 50.62076 | 13.03001 | 5320 ft | 269 kts | 63° |
| 2026-04-27 16:58 | 50.63060 | 13.05468 | 4987 ft | 264 kts | 52° |
| 2026-04-27 16:59 | 50.64305 | 13.07572 | 4655 ft | 262 kts | 41° |
| 2026-04-27 16:59 | 50.65669 | 13.09447 | 4387 ft | 256 kts | 41° |
| 2026-04-27 16:59 | 50.66936 | 13.11201 | 4340 ft | 228 kts | 41° |
| 2026-04-27 16:59 | 50.68057 | 13.12760 | 4340 ft | 203 kts | 41° |
| 2026-04-27 17:00 | 50.69746 | 13.15119 | 4364 ft | 193 kts | 42° |
| 2026-04-27 17:00 | 50.71085 | 13.16993 | 4365 ft | 194 kts | 41° |
| 2026-04-27 17:00 | 50.72078 | 13.18382 | 4363 ft | 193 kts | 41° |
| 2026-04-27 17:01 | 50.73085 | 13.19792 | 4352 ft | 193 kts | 41° |
| 2026-04-27 17:01 | 50.74089 | 13.21199 | 4350 ft | 193 kts | 41° |
| 2026-04-27 17:01 | 50.75092 | 13.22603 | 4345 ft | 194 kts | 41° |
| 2026-04-27 17:01 | 50.76124 | 13.24041 | 4368 ft | 207 kts | 41° |
| 2026-04-27 17:02 | 50.77223 | 13.25575 | 4355 ft | 213 kts | 41° |
| 2026-04-27 17:02 | 50.78336 | 13.27134 | 4362 ft | 213 kts | 41° |
| 2026-04-27 17:02 | 50.79450 | 13.28696 | 4352 ft | 214 kts | 41° |
| 2026-04-27 17:02 | 50.80567 | 13.30260 | 4362 ft | 215 kts | 41° |
| 2026-04-27 17:03 | 50.81681 | 13.31825 | 4365 ft | 215 kts | 40° |
| 2026-04-27 17:03 | 50.82793 | 13.33388 | 4355 ft | 213 kts | 41° |
| 2026-04-27 17:03 | 50.83905 | 13.34951 | 4354 ft | 214 kts | 41° |
| 2026-04-27 17:03 | 50.85022 | 13.36523 | 4348 ft | 214 kts | 40° |
| 2026-04-27 17:04 | 50.86133 | 13.38087 | 4352 ft | 213 kts | 40° |
| 2026-04-27 17:04 | 50.87242 | 13.39648 | 4359 ft | 215 kts | 40° |
| 2026-04-27 17:04 | 50.88352 | 13.41213 | 4375 ft | 211 kts | 41° |
| 2026-04-27 17:04 | 50.89400 | 13.42696 | 4371 ft | 195 kts | 40° |
| 2026-04-27 17:05 | 50.90391 | 13.44097 | 4237 ft | 187 kts | 40° |
| 2026-04-27 17:05 | 50.91360 | 13.45464 | 4131 ft | 185 kts | 40° |
| 2026-04-27 17:05 | 50.92307 | 13.46801 | 4059 ft | 184 kts | 40° |
| 2026-04-27 17:05 | 50.92954 | 13.47715 | 4060 ft | 184 kts | 40° |
| 2026-04-27 17:06 | 50.94224 | 13.49508 | 4063 ft | 184 kts | 40° |
| 2026-04-27 17:06 | 50.95184 | 13.50862 | 4061 ft | 185 kts | 40° |
| 2026-04-27 17:06 | 50.96147 | 13.52224 | 4063 ft | 186 kts | 41° |
| 2026-04-27 17:06 | 50.97108 | 13.53584 | 4059 ft | 185 kts | 41° |
| 2026-04-27 17:07 | 50.98070 | 13.54947 | 4066 ft | 184 kts | 40° |
| 2026-04-27 17:07 | 50.99023 | 13.56310 | 4060 ft | 184 kts | 42° |
| 2026-04-27 17:07 | 50.99947 | 13.57727 | 4061 ft | 185 kts | 43° |
| 2026-04-27 17:07 | 51.00848 | 13.59205 | 3891 ft | 188 kts | 46° |
| 2026-04-27 17:08 | 51.01738 | 13.60653 | 3636 ft | 181 kts | 41° |
| 2026-04-27 17:08 | 51.02662 | 13.61992 | 3367 ft | 179 kts | 39° |
| 2026-04-27 17:08 | 51.03578 | 13.63269 | 3112 ft | 171 kts | 39° |
| 2026-04-27 17:08 | 51.04468 | 13.64493 | 2889 ft | 167 kts | 40° |
| 2026-04-27 17:09 | 51.05346 | 13.65696 | 2662 ft | 165 kts | 39° |
| 2026-04-27 17:09 | 51.06216 | 13.66889 | 2444 ft | 165 kts | 39° |
| 2026-04-27 17:09 | 51.07084 | 13.68078 | 2216 ft | 165 kts | 39° |
| 2026-04-27 17:09 | 51.07950 | 13.69266 | 1998 ft | 164 kts | 39° |
| 2026-04-27 17:10 | 51.08801 | 13.70433 | 1767 ft | 163 kts | 39° |
| 2026-04-27 17:10 | 51.09658 | 13.71608 | 1536 ft | 163 kts | 39° |
| 2026-04-27 17:10 | 51.10518 | 13.72788 | 1317 ft | 164 kts | 40° |
| 2026-04-27 17:10 | 51.11384 | 13.73979 | 1088 ft | 165 kts | 39° |
| 2026-04-27 17:11 | 51.12251 | 13.75169 | 872 ft | 165 kts | 38° |
| 2026-04-27 17:11 | 51.13716 | 13.77192 | 732 ft | 77 kts | 42° |